KSTL/STL METAR and TAF weather

Enter ICAO airport designator
Station Type Date Time Source
KSTL METAR 2019/06/16 20:51 UTC NOAA

KSTL 162051Z 27003KT 10SM SCT065 SCT250 30/19 A2984 RMK AO2 SLP091 T03000189 58008 $


Station Type Date Time Source
KSTL Decoded METAR 2019/06/16 20:51 UTC NOAA

LAMBERT-ST LOUIS INTERNATIONAL AIRPORT , MO, United States (KSTL) 38-45N 90-22W 171M
Jun 16, 2019 - 04:51 PM EDT / 2019.06.16 2051 UTC
Wind: from the W (270 degrees) at 3 MPH (3 KT):0
Visibility: 10 mile(s):0
Sky conditions: partly cloudy
Temperature: 86.0 F (30.0 C)
Dew Point: 66.0 F (18.9 C)
Relative Humidity: 51%
Pressure (altimeter): 29.84 in. Hg (1010 hPa)
Pressure tendency: 0.02 inches (0.8 hPa) lower than three hours ago
ob: KSTL 162051Z 27003KT 10SM SCT065 SCT250 30/19 A2984 RMK AO2 SLP091 T03000189 58008
cycle: 21

Station Type Date Time Source
KSTL TAF 2019/06/16 21:03 UTC NOAA

TAF
AMD KSTL 162100Z 1621/1724 VRB03KT P6SM SCT050 BKN250
FM162200 25006KT P6SM VCTS SCT040CB BKN250
FM170200 VRB03KT P6SM VCTS SCT040CB BKN250
FM171200 00000KT P6SM VCSH BKN025
FM172100 VRB03KT P6SM VCTS BKN035CB

Example: see airport list